Time;durP1;ratioP1;P1;durP2;ratioP2;P2;SDS_P1;SDS_P2;PMS_P1;PMS_P2;Temp;Humidity;BMP_temperature;BMP_pressure;BME280_temperature;BME280_humidity;BME280_pressure;Samples;Min_cycle;Max_cycle;Signal;HPM_P1;HPM_P2
2023/05/12 00:02:02;;;;;;;12.70;6.75;;;;;;;-144.73;100.00;54440.53;5002796;28;20091;-72
2023/05/12 00:04:27;;;;;;;8.20;6.05;;;;;;;-144.73;100.00;54415.91;5003802;28;20041;-72
2023/05/12 00:06:52;;;;;;;9.68;6.10;;;;;;;-144.73;100.00;54415.91;5002620;28;20044;-72
2023/05/12 00:09:17;;;;;;;13.95;6.40;;;;;;;-144.73;100.00;54407.69;5003088;28;20021;-71
2023/05/12 00:11:43;;;;;;;13.02;6.60;;;;;;;-144.73;100.00;54407.69;5003488;28;20088;-71
2023/05/12 00:14:08;;;;;;;10.13;6.95;;;;;;;-144.73;100.00;54391.28;5006638;28;20056;-71
2023/05/12 00:16:33;;;;;;;18.90;7.20;;;;;;;-144.73;100.00;54424.13;5003562;28;20036;-71
2023/05/12 00:18:59;;;;;;;15.75;6.70;;;;;;;-144.73;100.00;54424.13;5002364;28;20029;-71
2023/05/12 00:21:24;;;;;;;12.52;6.05;;;;;;;-144.73;100.00;54399.50;5005197;28;20125;-71
2023/05/12 00:23:50;;;;;;;9.93;6.00;;;;;;;-144.73;100.00;54432.31;5015032;28;20029;-72
2023/05/12 00:26:16;;;;;;;10.27;5.97;;;;;;;-144.73;100.00;54391.28;5007292;28;20053;-71
2023/05/12 00:28:41;;;;;;;11.15;6.30;;;;;;;-144.73;100.00;54436.44;4998679;28;20393;-71
2023/05/12 00:31:07;;;;;;;7.85;5.55;;;;;;;-144.73;100.00;54461.06;5008750;28;20033;-71
2023/05/12 00:33:32;;;;;;;14.02;6.97;;;;;;;-144.73;100.00;54432.31;5007488;28;20018;-71
2023/05/12 00:36:00;;;;;;;14.10;6.18;;;;;;;-144.73;100.00;54411.81;5002276;28;20025;-71
2023/05/12 00:38:25;;;;;;;10.60;6.60;;;;;;;-144.73;100.00;54428.22;5021536;28;20025;-71
2023/05/12 00:40:50;;;;;;;15.65;6.50;;;;;;;-144.73;100.00;54428.22;5021453;28;20022;-71
2023/05/12 00:43:16;;;;;;;12.13;6.25;;;;;;;-144.73;100.00;54420.00;5005377;28;20056;-71
2023/05/12 00:45:41;;;;;;;10.85;6.00;;;;;;;-144.73;100.00;54424.13;5005482;28;20026;-71
2023/05/12 00:48:07;;;;;;;8.38;6.10;;;;;;;-144.73;100.00;54415.91;5002189;28;20032;-71
2023/05/12 00:50:33;;;;;;;11.57;5.80;;;;;;;-144.73;100.00;54424.13;4998305;28;20097;-71
2023/05/12 00:53:00;;;;;;;9.57;5.40;;;;;;;-144.73;100.00;54432.31;5019479;28;20026;-71
2023/05/12 00:55:25;;;;;;;6.75;5.13;;;;;;;-144.73;100.00;54395.38;5002371;28;20146;-71
2023/05/12 00:57:51;;;;;;;15.07;5.70;;;;;;;-144.73;100.00;54383.06;5008303;28;20046;-72
2023/05/12 01:00:17;;;;;;;11.07;5.80;;;;;;;-144.73;100.00;54440.53;5006936;28;20021;-72
2023/05/12 01:02:43;;;;;;;14.27;6.40;;;;;;;-144.73;100.00;54411.81;5001247;28;20037;-72
2023/05/12 01:05:09;;;;;;;11.05;5.78;;;;;;;-144.73;100.00;54506.22;5024334;28;20068;-72
2023/05/12 01:07:35;;;;;;;9.82;5.55;;;;;;;-144.73;100.00;54426.16;4999881;28;20045;-72
2023/05/12 01:10:00;;;;;;;7.40;4.90;;;;;;;-144.73;100.00;54436.44;5024059;28;20026;-72
2023/05/12 01:12:26;;;;;;;10.90;5.35;;;;;;;-144.73;100.00;54473.38;5001562;28;20117;-72
2023/05/12 01:14:55;;;;;;;9.05;5.15;;;;;;;-144.73;100.00;54440.53;5031049;28;20047;-72
2023/05/12 01:17:28;;;;;;;11.85;4.72;;;;;;;-144.73;100.00;54424.13;5011334;28;20044;-72
2023/05/12 01:19:57;;;;;;;9.25;4.93;;;;;;;-144.73;100.00;54430.28;5020540;28;20101;-72
2023/05/12 01:22:27;;;;;;;11.20;5.25;;;;;;;-144.73;100.00;54436.44;5029161;28;20053;-72
2023/05/12 01:24:58;;;;;;;7.80;4.50;;;;;;;-144.73;100.00;54438.50;5027193;28;20072;-72
2023/05/12 01:27:26;;;;;;;6.88;4.68;;;;;;;-144.73;100.00;54452.84;5006426;28;20112;-72
2023/05/12 01:29:53;;;;;;;7.22;4.20;;;;;;;-144.73;99.94;54389.22;5021750;28;20033;-72
2023/05/12 01:32:20;;;;;;;6.35;3.85;;;;;;;-144.73;99.29;54368.69;5011569;28;20037;-72
2023/05/12 01:34:45;;;;;;;5.93;3.55;;;;;;;-144.73;98.87;54422.06;5022585;28;20020;-72
2023/05/12 01:37:11;;;;;;;8.35;3.75;;;;;;;-144.73;99.45;54444.66;5022283;28;20034;-72
2023/05/12 01:39:37;;;;;;;7.82;4.15;;;;;;;-144.73;98.48;54469.28;5023766;28;20051;-72
2023/05/12 01:42:04;;;;;;;10.13;4.30;;;;;;;-144.73;97.76;54424.13;5025812;28;20082;-72
2023/05/12 01:44:29;;;;;;;11.20;4.57;;;;;;;-144.73;96.79;54415.91;5008765;28;20052;-72
2023/05/12 01:46:55;;;;;;;11.57;4.53;;;;;;;-144.73;97.98;54450.81;5004926;28;20063;-72
2023/05/12 01:49:21;;;;;;;11.38;4.47;;;;;;;-144.73;97.16;54407.69;5008417;28;20036;-72
2023/05/12 01:51:46;;;;;;;11.60;4.35;;;;;;;-144.73;97.39;54444.66;5017664;28;20033;-72
2023/05/12 01:54:11;;;;;;;9.27;4.10;;;;;;;-144.73;95.54;54420.00;5008242;28;20151;-72
2023/05/12 01:56:37;;;;;;;8.45;4.47;;;;;;;-144.73;96.08;54452.84;5001502;28;20045;-72
2023/05/12 01:59:02;;;;;;;9.35;4.32;;;;;;;-144.73;97.03;54420.00;5010621;28;20023;-72
2023/05/12 02:01:27;;;;;;;9.27;4.30;;;;;;;-144.73;97.63;54424.13;5000889;28;20029;-72
2023/05/12 02:03:54;;;;;;;6.85;3.95;;;;;;;-144.73;96.79;54393.34;5006047;28;20036;-72
2023/05/12 02:06:20;;;;;;;10.63;4.40;;;;;;;-144.73;96.66;54383.06;5021412;28;20030;-72
2023/05/12 02:08:45;;;;;;;5.55;3.90;;;;;;;-144.73;95.09;54383.06;5005822;28;20025;-72
2023/05/12 02:11:11;;;;;;;11.38;4.18;;;;;;;-144.73;93.92;54407.69;5002120;28;20038;-72
2023/05/12 02:13:36;;;;;;;12.45;4.15;;;;;;;-144.73;93.93;54395.38;5019038;28;20033;-72
2023/05/12 02:16:01;;;;;;;5.95;3.88;;;;;;;-144.73;94.17;54432.31;4997661;28;20025;-72
2023/05/12 02:18:27;;;;;;;7.72;4.03;;;;;;;-144.73;92.76;54426.16;5010948;28;20026;-72
2023/05/12 02:20:52;;;;;;;10.90;3.97;;;;;;;-144.73;94.08;54391.28;5006500;28;20026;-72
2023/05/12 02:23:18;;;;;;;14.55;4.00;;;;;;;-144.73;91.81;54411.81;5011741;28;20030;-72
2023/05/12 02:25:43;;;;;;;8.25;3.60;;;;;;;-144.73;92.16;54432.31;5007704;28;20045;-72
2023/05/12 02:28:10;;;;;;;5.82;3.60;;;;;;;-144.73;92.31;54407.69;5006140;28;20097;-72
2023/05/12 02:30:36;;;;;;;6.45;4.03;;;;;;;-144.73;91.35;54422.06;5019044;28;20060;-72
2023/05/12 02:33:04;;;;;;;7.60;3.38;;;;;;;-144.73;90.44;54432.31;5011502;28;20065;-72
2023/05/12 02:35:29;;;;;;;5.15;3.38;;;;;;;-144.73;90.69;54391.28;5025776;28;20563;-72
2023/05/12 02:37:54;;;;;;;7.43;3.90;;;;;;;-144.73;90.27;54452.84;5020614;28;20029;-72
2023/05/12 02:40:20;;;;;;;5.47;3.67;;;;;;;-144.73;90.33;54415.91;5004512;28;20025;-72
2023/05/12 02:42:45;;;;;;;9.32;4.32;;;;;;;-144.73;90.02;54415.91;5004949;28;20072;-72
2023/05/12 02:45:11;;;;;;;10.88;4.00;;;;;;;-144.73;90.58;54428.22;5003238;28;20049;-71
2023/05/12 02:47:36;;;;;;;7.78;3.70;;;;;;;-144.73;90.30;54415.91;5024174;28;20053;-71
2023/05/12 02:50:02;;;;;;;9.90;4.00;;;;;;;-144.73;89.57;54411.81;5005335;28;20017;-71
2023/05/12 02:52:27;;;;;;;5.18;3.63;;;;;;;-144.73;89.92;54407.69;5023355;28;20088;-71
2023/05/12 02:54:53;;;;;;;7.70;4.30;;;;;;;-144.73;89.56;54432.31;5023421;28;20049;-71
2023/05/12 02:57:18;;;;;;;6.13;4.15;;;;;;;-144.73;89.22;54413.84;5022251;28;20045;-71
2023/05/12 02:59:43;;;;;;;12.43;4.13;;;;;;;-144.73;90.23;54397.44;5005203;28;20018;-71
2023/05/12 03:02:09;;;;;;;7.55;3.70;;;;;;;-144.73;89.22;54411.81;5027716;28;20109;-71
2023/05/12 03:04:34;;;;;;;6.05;4.20;;;;;;;-144.73;89.64;54407.69;5001590;28;20022;-70
2023/05/12 03:06:59;;;;;;;7.50;3.67;;;;;;;-144.73;90.19;54428.22;5009614;28;20025;-71
2023/05/12 03:09:24;;;;;;;5.90;4.10;;;;;;;-144.73;89.87;54395.38;5010447;28;20040;-70
2023/05/12 03:11:50;;;;;;;5.82;3.83;;;;;;;-144.73;90.02;54469.28;5025389;28;20041;-72
2023/05/12 03:14:15;;;;;;;9.77;4.03;;;;;;;-144.73;89.41;54391.28;5004663;28;20030;-71
2023/05/12 03:16:40;;;;;;;7.63;3.63;;;;;;;-144.73;89.42;54432.31;5021412;28;20152;-71
2023/05/12 03:19:06;;;;;;;10.05;3.75;;;;;;;-144.73;89.92;54407.69;5008303;28;20052;-71
2023/05/12 03:21:31;;;;;;;6.90;4.00;;;;;;;-144.73;89.56;54391.28;5024732;28;20025;-71
2023/05/12 03:23:56;;;;;;;5.72;4.10;;;;;;;-144.73;90.17;54391.28;5008096;28;20022;-72
2023/05/12 03:26:22;;;;;;;8.35;4.47;;;;;;;-144.73;90.83;54420.00;5012100;28;20037;-71
2023/05/12 03:28:47;;;;;;;9.05;4.43;;;;;;;-144.73;89.64;54415.91;5010381;28;20022;-71
2023/05/12 03:31:12;;;;;;;9.07;3.80;;;;;;;-144.73;90.14;54413.84;5001026;28;20051;-71
2023/05/12 03:33:38;;;;;;;8.23;3.92;;;;;;;-144.73;90.48;54436.44;5003136;28;20033;-71
2023/05/12 03:36:04;;;;;;;6.05;4.13;;;;;;;-144.73;89.79;54424.13;5002295;28;20076;-72
2023/05/12 03:38:30;;;;;;;7.63;4.90;;;;;;;-144.73;90.85;54411.81;5000771;28;20026;-71
2023/05/12 03:41:05;;;;;;;5.40;4.15;;;;;;;-144.73;90.50;54436.44;5002778;28;20079;-71
2023/05/12 03:43:34;;;;;;;10.45;4.47;;;;;;;-144.73;88.98;54366.66;5012632;28;20037;-72
2023/05/12 03:46:00;;;;;;;11.13;3.85;;;;;;;-144.73;89.22;54391.28;5002847;28;20021;-72
2023/05/12 03:48:25;;;;;;;7.18;4.25;;;;;;;-144.73;88.76;54364.59;5010443;28;20069;-72
2023/05/12 03:50:54;;;;;;;8.85;4.25;;;;;;;-144.73;89.29;54411.81;5002770;28;20388;-72
2023/05/12 03:53:19;;;;;;;12.00;4.60;;;;;;;-144.73;89.28;54370.75;5013255;28;20085;-71
2023/05/12 03:55:45;;;;;;;11.43;4.40;;;;;;;-144.73;89.16;54354.34;5000311;28;20064;-72
2023/05/12 03:58:10;;;;;;;8.48;4.25;;;;;;;-144.73;90.66;54407.69;5002984;28;20045;-72
2023/05/12 04:00:35;;;;;;;10.07;4.60;;;;;;;-144.73;90.37;54407.69;5024272;28;20036;-72
2023/05/12 04:03:01;;;;;;;12.02;4.82;;;;;;;-144.73;90.99;54415.91;5016617;28;20038;-72
2023/05/12 04:05:27;;;;;;;11.82;4.65;;;;;;;-144.73;90.60;54420.00;5029233;28;20048;-72
2023/05/12 04:07:52;;;;;;;7.55;4.95;;;;;;;-144.73;90.71;54378.97;5003696;28;20034;-72
2023/05/12 04:10:17;;;;;;;14.52;4.95;;;;;;;-144.73;90.24;54395.38;5024242;28;20028;-72
2023/05/12 04:12:43;;;;;;;13.73;4.57;;;;;;;-144.73;90.80;54424.13;5004970;28;20066;-72
2023/05/12 04:15:08;;;;;;;12.98;4.40;;;;;;;-144.73;91.43;54411.81;5005771;28;20120;-72
2023/05/12 04:17:34;;;;;;;17.17;4.70;;;;;;;-144.73;92.12;54399.50;5009100;28;20038;-72
2023/05/12 04:19:59;;;;;;;7.28;4.50;;;;;;;-144.73;91.44;54383.06;5021733;28;20472;-71
2023/05/12 04:22:25;;;;;;;10.18;4.65;;;;;;;-144.73;89.78;54393.34;4998986;28;20041;-71
2023/05/12 04:24:50;;;;;;;9.13;4.70;;;;;;;-144.73;89.80;54370.75;5012629;28;20026;-70
2023/05/12 04:27:16;;;;;;;12.75;4.45;;;;;;;-144.73;89.94;54422.06;5017973;28;20041;-71
2023/05/12 04:29:41;;;;;;;12.13;4.90;;;;;;;-144.73;89.90;54370.75;4994689;28;20539;-71
2023/05/12 04:32:07;;;;;;;13.75;4.53;;;;;;;-144.73;89.80;54411.81;4993475;28;20034;-71
2023/05/12 04:34:32;;;;;;;7.50;4.30;;;;;;;-144.73;88.53;54395.38;5009152;28;20033;-71
2023/05/12 04:36:58;;;;;;;11.23;4.55;;;;;;;-144.73;89.51;54393.34;4996514;28;20048;-71
2023/05/12 04:39:23;;;;;;;14.52;5.38;;;;;;;-144.73;90.37;54411.81;4998915;28;20477;-71
2023/05/12 04:41:48;;;;;;;12.02;4.65;;;;;;;-144.73;89.61;54383.06;5013481;28;20052;-71
2023/05/12 04:44:14;;;;;;;32.75;5.57;;;;;;;-144.73;89.28;54428.22;5003826;28;20021;-71
2023/05/12 04:46:40;;;;;;;10.98;4.50;;;;;;;-144.73;89.49;54395.38;5019574;28;20025;-71
2023/05/12 04:49:05;;;;;;;7.80;5.28;;;;;;;-144.73;89.68;54413.84;5005377;28;20034;-71
2023/05/12 04:51:31;;;;;;;9.88;5.18;;;;;;;-144.73;89.84;54391.28;5001730;28;20057;-71
2023/05/12 04:53:56;;;;;;;12.30;5.30;;;;;;;-144.73;88.92;54360.50;5013399;28;20072;-70
2023/05/12 04:56:21;;;;;;;9.15;5.40;;;;;;;-144.73;87.56;54422.06;5024978;28;20030;-71
2023/05/12 04:58:47;;;;;;;11.68;5.30;;;;;;;-144.73;87.50;54399.50;5006873;28;20018;-71
2023/05/12 05:01:12;;;;;;;14.38;5.03;;;;;;;-144.73;87.58;54424.13;5026974;28;20400;-73
2023/05/12 05:03:38;;;;;;;10.30;4.78;;;;;;;-144.73;87.21;54432.31;5011364;28;20025;-71
2023/05/12 05:06:04;;;;;;;12.20;5.35;;;;;;;-144.73;86.83;54415.91;5029724;28;20080;-72
2023/05/12 05:08:29;;;;;;;9.98;4.53;;;;;;;-144.73;85.38;54407.69;5023525;28;20013;-71
2023/05/12 05:10:54;;;;;;;9.52;4.50;;;;;;;-144.73;86.08;54395.38;5013077;28;20112;-71
2023/05/12 05:13:20;;;;;;;11.13;5.00;;;;;;;-144.73;87.33;54407.69;5033806;28;20107;-71
2023/05/12 05:15:49;;;;;;;11.80;5.05;;;;;;;-144.73;87.65;54378.97;5006137;28;20049;-71
2023/05/12 05:18:15;;;;;;;11.00;5.65;;;;;;;-144.73;85.01;54415.91;5005505;28;20050;-71
2023/05/12 05:20:41;;;;;;;8.07;4.57;;;;;;;-144.73;83.93;54415.91;5006659;28;20030;-71
2023/05/12 05:23:07;;;;;;;8.02;4.85;;;;;;;-144.73;83.78;54378.97;5008926;28;20065;-71
2023/05/12 05:25:33;;;;;;;11.02;4.22;;;;;;;-144.73;83.18;54395.38;5025920;28;20053;-72
2023/05/12 05:27:58;;;;;;;8.18;4.93;;;;;;;-144.73;83.08;54417.97;5025136;28;20062;-72
2023/05/12 05:30:24;;;;;;;9.18;4.72;;;;;;;-144.73;83.38;54411.81;5030328;28;20032;-71
2023/05/12 05:32:49;;;;;;;8.70;4.57;;;;;;;-144.73;83.19;54428.22;5009203;28;20030;-71
2023/05/12 05:35:15;;;;;;;14.82;5.07;;;;;;;-144.73;82.61;54383.06;5022845;28;20100;-71
2023/05/12 05:37:41;;;;;;;14.60;5.20;;;;;;;-144.73;82.78;54395.38;5012583;28;20056;-72
2023/05/12 05:40:07;;;;;;;8.05;4.82;;;;;;;-144.73;82.95;54389.22;5013190;28;20028;-72
2023/05/12 05:42:32;;;;;;;7.82;4.18;;;;;;;-144.73;82.99;54354.34;5007809;28;20041;-72
2023/05/12 05:44:57;;;;;;;12.43;5.10;;;;;;;-144.73;82.63;54415.91;5003053;28;20070;-72
2023/05/12 05:47:23;;;;;;;13.88;5.72;;;;;;;-144.73;82.68;54415.91;5027280;28;20061;-72
2023/05/12 05:49:48;;;;;;;21.02;5.18;;;;;;;-144.73;81.71;54411.81;5022441;28;20017;-72
2023/05/12 05:52:14;;;;;;;10.98;4.78;;;;;;;-144.73;81.89;54370.75;5004186;28;20037;-72
2023/05/12 05:54:39;;;;;;;11.88;4.78;;;;;;;-144.73;81.19;54415.91;5026464;28;20041;-72
2023/05/12 05:57:05;;;;;;;14.80;4.65;;;;;;;-144.73;80.52;54428.22;5008833;28;20068;-72
2023/05/12 05:59:31;;;;;;;13.23;4.82;;;;;;;-144.73;80.97;54366.66;5008018;28;20033;-72
2023/05/12 06:01:56;;;;;;;14.93;4.97;;;;;;;-144.73;80.72;54378.97;5023663;28;20389;-72
2023/05/12 06:04:22;;;;;;;9.27;5.18;;;;;;;-144.73;79.18;54383.06;5030241;28;20029;-72
2023/05/12 06:06:47;;;;;;;10.93;4.28;;;;;;;-144.73;79.76;54378.97;5009078;28;20037;-71
2023/05/12 06:09:14;;;;;;;12.85;4.88;;;;;;;-144.73;77.67;54428.22;5005857;28;20025;-72
2023/05/12 06:11:39;;;;;;;8.13;4.40;;;;;;;-144.73;77.69;54417.97;5032167;28;20029;-72
2023/05/12 06:14:05;;;;;;;19.98;5.43;;;;;;;-144.73;77.80;54387.19;5027321;28;20396;-72
2023/05/12 06:16:30;;;;;;;7.25;4.13;;;;;;;-144.73;76.06;54366.66;5026714;28;20033;-72
2023/05/12 06:18:55;;;;;;;11.48;4.25;;;;;;;-144.73;77.31;54378.97;5026460;28;20033;-72
2023/05/12 06:21:21;;;;;;;7.85;4.70;;;;;;;-144.73;74.91;54407.69;5012451;28;20097;-72
2023/05/12 06:23:46;;;;;;;17.25;4.80;;;;;;;-144.73;74.79;54385.13;5001987;28;20018;-72
2023/05/12 06:26:12;;;;;;;13.23;4.82;;;;;;;-144.73;73.36;54399.50;5025398;28;20036;-72
2023/05/12 06:28:37;;;;;;;9.80;4.22;;;;;;;-144.73;74.62;54376.91;5008558;28;20021;-72
2023/05/12 06:31:06;;;;;;;13.65;4.32;;;;;;;-144.73;75.19;54381.00;5009369;28;20033;-72
2023/05/12 06:33:32;;;;;;;13.32;4.68;;;;;;;-144.73;71.97;54395.38;5004336;28;20056;-72
2023/05/12 06:35:57;;;;;;;13.98;5.00;;;;;;;-144.73;71.13;54411.81;5022718;28;20060;-72
2023/05/12 06:38:22;;;;;;;10.27;4.47;;;;;;;-144.73;70.57;54374.84;5026339;28;20117;-72
2023/05/12 06:40:48;;;;;;;14.00;4.82;;;;;;;-144.73;69.75;54370.75;5029428;28;20040;-72
2023/05/12 06:43:13;;;;;;;15.82;5.28;;;;;;;-144.73;70.66;54350.22;5026210;28;20049;-72
2023/05/12 06:45:39;;;;;;;10.43;4.72;;;;;;;-144.73;70.93;54358.44;5001410;28;20033;-72
2023/05/12 06:48:08;;;;;;;10.02;4.68;;;;;;;-144.73;69.74;54376.91;5007736;28;20022;-72
2023/05/12 06:50:33;;;;;;;13.98;5.18;;;;;;;-144.73;69.52;54354.34;5018366;28;20022;-73
2023/05/12 06:52:58;;;;;;;11.98;5.25;;;;;;;-144.73;68.44;54362.53;5010027;28;20036;-73
2023/05/12 06:55:24;;;;;;;11.13;3.92;;;;;;;-144.73;66.47;54395.38;5000490;28;20476;-72
2023/05/12 06:57:54;;;;;;;8.13;4.13;;;;;;;-144.73;68.13;54399.50;5010230;28;20094;-72
2023/05/12 07:00:22;;;;;;;11.43;4.57;;;;;;;-144.73;68.20;54407.69;5018584;28;20017;-72
2023/05/12 07:02:47;;;;;;;13.68;5.20;;;;;;;-144.73;68.17;54370.75;5007897;28;20038;-72
2023/05/12 07:05:12;;;;;;;22.85;4.53;;;;;;;-144.73;65.71;54364.59;5008368;28;20378;-72
2023/05/12 07:07:38;;;;;;;13.35;4.30;;;;;;;-144.73;66.02;54407.69;5024255;28;20026;-73
2023/05/12 07:10:05;;;;;;;11.63;4.15;;;;;;;-144.73;64.66;54366.66;5003893;28;20028;-73
2023/05/12 07:12:31;;;;;;;7.90;3.70;;;;;;;-144.73;64.76;54407.69;5013352;28;20057;-71
2023/05/12 07:14:56;;;;;;;10.27;4.50;;;;;;;-144.73;64.26;54358.44;5018910;28;20373;-72
2023/05/12 07:17:22;;;;;;;18.73;4.72;;;;;;;-144.73;63.32;54420.00;5024839;28;20038;-73
2023/05/12 07:19:47;;;;;;;11.00;4.50;;;;;;;-144.73;63.12;54342.03;4998775;28;20025;-72
2023/05/12 07:22:13;;;;;;;14.57;4.55;;;;;;;-144.73;62.22;54362.53;5028660;28;20040;-72
2023/05/12 07:24:38;;;;;;;11.02;4.20;;;;;;;-144.73;60.78;54317.38;5020100;28;20025;-72
2023/05/12 07:27:04;;;;;;;16.77;5.18;;;;;;;-144.73;61.76;54358.44;5001188;28;20030;-73
2023/05/12 07:29:29;;;;;;;28.60;5.05;;;;;;;-144.73;60.18;54329.72;5009561;28;20072;-73
2023/05/12 07:31:55;;;;;;;11.00;4.43;;;;;;;-144.73;61.09;54370.75;5003540;28;20033;-73
2023/05/12 07:34:20;;;;;;;14.27;3.47;;;;;;;-144.73;61.54;54309.19;5025467;28;20029;-72
2023/05/12 07:36:46;;;;;;;12.57;3.83;;;;;;;-144.73;59.84;54374.84;5007198;28;20036;-73
2023/05/12 07:39:13;;;;;;;13.70;4.68;;;;;;;-144.73;58.42;54325.59;5005262;28;20096;-73
2023/05/12 07:41:39;;;;;;;11.68;4.55;;;;;;;-144.73;59.71;54337.91;5005866;28;20117;-73
2023/05/12 07:44:06;;;;;;;10.18;4.47;;;;;;;-144.73;58.93;54378.97;4997211;28;20112;-73
2023/05/12 07:46:31;;;;;;;7.03;4.22;;;;;;;-144.73;58.73;54362.53;4996880;28;20042;-73
2023/05/12 07:48:56;;;;;;;16.20;4.63;;;;;;;-144.73;59.36;54381.00;5014888;28;20022;-73
2023/05/12 07:51:22;;;;;;;10.85;4.32;;;;;;;-144.73;58.17;54337.91;4998486;28;20569;-73
2023/05/12 07:53:47;;;;;;;17.88;4.53;;;;;;;-144.73;57.63;54350.22;4999258;28;20029;-73
2023/05/12 07:56:12;;;;;;;8.57;4.25;;;;;;;-144.73;57.03;54370.75;4991212;28;20125;-73
2023/05/12 07:58:38;;;;;;;9.20;4.65;;;;;;;-144.73;56.10;54354.34;4994942;28;20059;-73
2023/05/12 08:01:05;;;;;;;8.95;3.97;;;;;;;-144.73;57.61;54385.13;5001796;28;20030;-73
2023/05/12 08:03:32;;;;;;;13.50;4.80;;;;;;;-144.73;56.88;54337.91;4994390;28;20108;-73
2023/05/12 08:05:57;;;;;;;8.30;4.18;;;;;;;-144.73;56.66;54284.56;4998225;28;20013;-73
2023/05/12 08:08:22;;;;;;;10.57;4.13;;;;;;;-144.73;57.02;54372.81;5018628;28;20058;-73
2023/05/12 08:10:48;;;;;;;11.43;4.15;;;;;;;-144.73;57.46;54372.81;5001563;28;20112;-73
2023/05/12 08:13:13;;;;;;;9.75;4.68;;;;;;;-144.73;57.85;54337.91;5000820;28;20029;-73
2023/05/12 08:15:38;;;;;;;9.23;3.95;;;;;;;-144.73;57.88;54321.50;4999350;28;20412;-73
2023/05/12 08:18:10;;;;;;;10.68;4.22;;;;;;;-144.73;56.19;54383.06;5000177;28;20112;-73
2023/05/12 08:20:35;;;;;;;19.48;4.47;;;;;;;-144.73;55.95;54335.88;5005400;28;20124;-73
2023/05/12 08:23:01;;;;;;;10.18;4.25;;;;;;;-144.73;56.43;54331.75;5000251;28;20562;-73
2023/05/12 08:25:29;;;;;;;9.85;4.53;;;;;;;-144.73;55.16;54303.03;4991629;28;20301;-72
2023/05/12 08:27:56;;;;;;;7.95;4.07;;;;;;;-144.73;53.23;54329.72;5003077;28;20025;-72
2023/05/12 08:30:21;;;;;;;13.38;4.82;;;;;;;-144.73;53.04;54346.13;5022048;28;20025;-73
2023/05/12 08:32:47;;;;;;;14.57;4.45;;;;;;;-144.73;53.69;54305.06;4993989;28;20056;-72
2023/05/12 08:35:12;;;;;;;14.40;4.97;;;;;;;-144.73;54.07;54311.22;5021964;28;20028;-73
2023/05/12 08:37:37;;;;;;;12.32;4.05;;;;;;;-144.73;53.10;54333.81;4998733;28;20104;-72
2023/05/12 08:40:13;;;;;;;12.75;4.03;;;;;;;-144.73;52.46;54303.03;5001304;28;20021;-72
2023/05/12 08:42:43;;;;;;;16.25;4.05;;;;;;;-144.73;51.48;54305.06;5003623;28;20045;-72
2023/05/12 08:45:10;;;;;;;14.13;4.05;;;;;;;-144.73;51.89;54298.91;5006208;28;20096;-72
2023/05/12 08:47:36;;;;;;;7.63;3.88;;;;;;;-144.73;51.24;54317.38;5008210;28;20033;-73
2023/05/12 08:50:03;;;;;;;8.18;3.70;;;;;;;-144.73;48.71;54264.03;5005417;28;20568;-74
2023/05/12 08:52:31;;;;;;;8.93;3.90;;;;;;;-144.73;48.98;54292.75;5009137;28;20038;-73
2023/05/12 08:54:57;;;;;;;6.28;3.50;;;;;;;-144.73;47.88;54288.66;5019145;28;20031;-73
2023/05/12 08:57:23;;;;;;;9.48;3.53;;;;;;;-144.73;47.61;54251.72;5021262;28;20081;-73
2023/05/12 08:59:52;;;;;;;12.98;4.13;;;;;;;-144.73;46.42;54325.59;5007311;28;20041;-72
2023/05/12 09:02:21;;;;;;;13.57;4.47;;;;;;;-144.73;48.14;54342.03;5005142;28;20112;-72
2023/05/12 09:04:47;;;;;;;16.10;4.10;;;;;;;-144.73;46.21;54319.44;5003489;28;20391;-72
2023/05/12 09:07:14;;;;;;;7.43;3.72;;;;;;;-144.73;47.49;54280.44;5005385;28;20095;-73
2023/05/12 09:09:43;;;;;;;6.72;3.80;;;;;;;-144.73;44.60;54317.38;5001265;28;20029;-73
2023/05/12 09:12:14;;;;;;;8.52;3.58;;;;;;;-144.73;44.80;54251.72;5000177;28;20033;-73
2023/05/12 09:14:40;;;;;;;10.93;3.53;;;;;;;-144.73;43.29;54300.97;5005164;28;20491;-73
2023/05/12 09:17:06;;;;;;;9.45;3.58;;;;;;;-144.73;44.25;54288.66;5002567;28;20304;-73
2023/05/12 09:19:33;;;;;;;8.57;4.00;;;;;;;-144.73;41.99;54315.34;4998219;28;20021;-73
2023/05/12 09:21:59;;;;;;;11.35;4.05;;;;;;;-144.73;41.38;54284.56;5002645;28;20033;-73
2023/05/12 09:24:35;;;;;;;15.45;3.70;;;;;;;-144.73;41.71;54337.91;5001895;28;20484;-73
2023/05/12 09:27:02;;;;;;;15.25;3.90;;;;;;;-144.73;41.42;54292.75;4997129;28;20116;-73
2023/05/12 09:29:28;;;;;;;6.88;3.40;;;;;;;-144.73;40.65;54321.50;4996425;28;20018;-72
2023/05/12 09:31:57;;;;;;;8.00;3.88;;;;;;;-144.73;41.76;54284.56;5005427;28;20156;-72
2023/05/12 09:34:34;;;;;;;12.48;3.53;;;;;;;-144.73;40.65;54284.56;5002023;28;20074;-72
2023/05/12 09:37:02;;;;;;;16.63;3.83;;;;;;;-144.73;40.37;54280.44;4998377;28;20030;-72
2023/05/12 09:39:28;;;;;;;12.35;3.60;;;;;;;-144.73;40.16;54259.91;5003842;28;20021;-72
2023/05/12 09:41:54;;;;;;;16.80;4.15;;;;;;;-144.73;41.11;54280.44;5001535;28;20025;-73
2023/05/12 09:44:20;;;;;;;10.10;3.42;;;;;;;-144.73;40.78;54284.56;5021038;28;20071;-73
2023/05/12 09:46:46;;;;;;;8.65;3.78;;;;;;;-144.73;39.66;54296.88;5020140;28;20064;-73
2023/05/12 09:49:17;;;;;;;7.68;3.47;;;;;;;-144.73;40.82;54309.19;5000765;28;20033;-73
2023/05/12 09:51:42;;;;;;;8.60;3.45;;;;;;;-144.73;39.92;54276.34;5020843;28;20171;-73
2023/05/12 09:54:07;;;;;;;10.85;4.10;;;;;;;-144.73;39.35;54251.72;4996537;28;20109;-72
2023/05/12 09:56:36;;;;;;;8.25;3.83;;;;;;;-144.73;38.47;54259.91;4999058;28;20046;-73
2023/05/12 09:59:03;;;;;;;12.98;3.60;;;;;;;-144.73;37.88;54313.28;5003303;28;20030;-72
2023/05/12 10:01:29;;;;;;;6.53;3.33;;;;;;;-144.73;37.86;54251.72;4999116;28;20038;-72
2023/05/12 10:03:56;;;;;;;13.30;4.22;;;;;;;-144.73;39.26;54268.13;4999250;28;20029;-73
2023/05/12 10:06:32;;;;;;;8.90;3.92;;;;;;;-144.73;38.45;54288.66;5001558;28;20048;-72
2023/05/12 10:09:19;;;;;;;7.70;3.60;;;;;;;-144.73;39.38;54276.34;4999538;28;20009;-73
2023/05/12 10:11:46;;;;;;;11.27;3.53;;;;;;;-144.73;38.40;54251.72;5001984;28;20126;-72
2023/05/12 10:14:12;;;;;;;12.60;3.22;;;;;;;-144.73;37.92;54276.34;5021446;28;20120;-72
2023/05/12 10:16:40;;;;;;;8.40;3.95;;;;;;;-144.73;36.94;54237.34;5002413;28;20512;-72
2023/05/12 10:19:05;;;;;;;7.32;3.75;;;;;;;-144.73;36.84;54276.34;4996922;28;20040;-72
2023/05/12 10:21:31;;;;;;;9.88;3.78;;;;;;;-144.73;38.81;54280.44;5000713;28;20026;-72
2023/05/12 10:23:57;;;;;;;14.57;4.32;;;;;;;-144.73;37.38;54284.56;5003825;28;20065;-72
2023/05/12 10:26:23;;;;;;;10.55;2.92;;;;;;;-144.73;37.94;54313.28;5006090;28;20115;-72
2023/05/12 10:28:50;;;;;;;12.52;3.33;;;;;;;-144.73;37.00;54317.38;5021604;28;20045;-72
2023/05/12 10:31:15;;;;;;;9.75;3.15;;;;;;;-144.73;36.90;54309.19;4997066;28;20068;-72
2023/05/12 10:33:41;;;;;;;9.73;3.45;;;;;;;-144.73;36.39;54298.91;5017248;28;20033;-72
2023/05/12 10:36:17;;;;;;;10.02;3.50;;;;;;;-144.73;35.54;54300.97;4998245;28;20056;-72
2023/05/12 10:38:42;;;;;;;12.27;4.35;;;;;;;-144.73;35.38;54276.34;5001816;28;20030;-73
2023/05/12 10:41:08;;;;;;;5.82;3.08;;;;;;;-144.73;34.07;54245.56;5000537;28;20021;-74
2023/05/12 10:43:42;;;;;;;9.85;3.28;;;;;;;-144.73;33.73;54264.03;4999182;28;20018;-73
2023/05/12 10:46:18;;;;;;;8.88;3.40;;;;;;;-144.73;34.48;54276.34;4998814;28;20088;-73
2023/05/12 10:49:06;;;;;;;12.23;3.33;;;;;;;-144.73;34.48;54268.13;4995243;28;20068;-73
2023/05/12 10:51:33;;;;;;;16.75;3.55;;;;;;;-144.73;33.87;54255.81;5017991;28;20068;-73
2023/05/12 10:54:04;;;;;;;62.67;9.45;;;;;;;-144.73;33.91;54280.44;4999073;28;20059;-73
2023/05/12 10:56:39;;;;;;;;;;;;;;;-144.73;31.05;54194.25;5020254;28;20041;-73
2023/05/12 10:59:25;;;;;;;14.40;3.40;;;;;;;-144.73;30.73;54342.03;4999086;28;19928;-72
2023/05/12 11:02:17;;;;;;;17.77;3.22;;;;;;;-144.73;29.55;54227.09;4993510;28;20036;-72
2023/05/12 11:05:03;;;;;;;10.60;3.70;;;;;;;-144.73;30.93;54264.03;5020048;28;20041;-73
2023/05/12 11:07:31;;;;;;;32.03;5.00;;;;;;;-144.73;34.36;54210.66;5018163;28;20048;-73
2023/05/12 11:09:59;;;;;;;8.93;3.58;;;;;;;-144.73;34.45;54243.50;5001614;28;20187;-73